Time;durP1;ratioP1;P1;durP2;ratioP2;P2;SDS_P1;SDS_P2;PMS_P1;PMS_P2;Temp;Humidity;BMP_temperature;BMP_pressure;BME280_temperature;BME280_humidity;BME280_pressure;Samples;Min_cycle;Max_cycle;Signal;HPM_P1;HPM_P2
2022/02/18 00:01:59;;;;;;;1.65;0.73;;;6.40;99.90;;;;;;5094412;28;20197;-68
2022/02/18 00:04:25;;;;;;;0.45;0.40;;;6.30;99.90;;;;;;5099367;28;20215;-67
2022/02/18 00:06:51;;;;;;;5.00;0.80;;;6.20;99.90;;;;;;5101500;28;20171;-68
2022/02/18 00:09:17;;;;;;;1.48;0.73;;;6.20;99.90;;;;;;5089856;28;20174;-68
2022/02/18 00:11:43;;;;;;;3.03;0.90;;;6.10;99.90;;;;;;5105170;28;20168;-68
2022/02/18 00:14:09;;;;;;;1.23;0.60;;;6.00;99.90;;;;;;5096065;28;20199;-69
2022/02/18 00:16:34;;;;;;;6.63;1.55;;;5.90;99.90;;;;;;5097400;28;20202;-68
2022/02/18 00:19:00;;;;;;;1.80;0.60;;;5.80;99.90;;;;;;5101327;28;20199;-68
2022/02/18 00:21:26;;;;;;;5.28;0.98;;;5.80;99.90;;;;;;5091896;28;20196;-68
2022/02/18 00:23:52;;;;;;;4.65;0.95;;;5.70;99.90;;;;;;5103776;28;20167;-68
2022/02/18 00:26:18;;;;;;;2.03;1.08;;;5.60;99.90;;;;;;5096690;28;20174;-68
2022/02/18 00:28:45;;;;;;;6.63;1.15;;;5.60;99.90;;;;;;5096529;28;20171;-69
2022/02/18 00:31:12;;;;;;;3.70;1.00;;;5.50;99.90;;;;;;5104021;28;20561;-68
2022/02/18 00:33:38;;;;;;;3.20;1.00;;;5.40;99.90;;;;;;5091903;28;20171;-69
2022/02/18 00:36:04;;;;;;;1.20;0.52;;;5.30;99.90;;;;;;5101398;28;20263;-68
2022/02/18 00:38:30;;;;;;;7.28;1.25;;;5.10;99.90;;;;;;5098645;28;20171;-68
2022/02/18 00:40:56;;;;;;;3.58;1.08;;;5.30;99.90;;;;;;5094057;28;20657;-68
2022/02/18 00:43:22;;;;;;;11.50;2.20;;;5.70;99.90;;;;;;5105050;28;20159;-68
2022/02/18 00:45:49;;;;;;;2.22;1.00;;;5.60;99.90;;;;;;5090944;28;20163;-68
2022/02/18 00:48:15;;;;;;;1.20;0.50;;;5.50;99.90;;;;;;5100408;28;20318;-68
2022/02/18 00:50:41;;;;;;;7.43;2.08;;;5.50;99.90;;;;;;5085690;28;20811;-68
2022/02/18 00:53:07;;;;;;;6.30;1.27;;;5.80;99.90;;;;;;5097086;28;20163;-68
2022/02/18 00:55:33;;;;;;;4.63;1.15;;;5.90;99.90;;;;;;5104389;28;20159;-68
2022/02/18 00:57:59;;;;;;;1.55;0.82;;;5.80;99.90;;;;;;5094020;28;20271;-68
2022/02/18 01:00:26;;;;;;;2.03;0.47;;;6.10;99.90;;;;;;5098247;28;20206;-68
2022/02/18 01:02:51;;;;;;;0.55;0.35;;;6.20;99.90;;;;;;5099877;28;20211;-68
2022/02/18 01:05:17;;;;;;;2.80;1.33;;;6.30;99.90;;;;;;5091228;28;20182;-67
2022/02/18 01:07:44;;;;;;;6.43;0.80;;;6.50;99.90;;;;;;5104419;28;20175;-68
2022/02/18 01:10:11;;;;;;;0.82;0.50;;;7.10;99.90;;;;;;5095431;28;20195;-68
2022/02/18 01:12:37;;;;;;;2.33;1.17;;;7.20;99.90;;;;;;5096544;28;20629;-68
2022/02/18 01:15:04;;;;;;;2.95;1.27;;;7.10;99.90;;;;;;5102851;28;20175;-68
2022/02/18 01:17:30;;;;;;;2.42;0.65;;;7.00;99.90;;;;;;5090859;28;20207;-68
2022/02/18 01:19:56;;;;;;;4.50;1.00;;;7.00;99.90;;;;;;5102610;28;20221;-68
2022/02/18 01:22:22;;;;;;;3.15;0.90;;;6.80;99.90;;;;;;5096509;28;20255;-67
2022/02/18 01:24:48;;;;;;;3.28;0.98;;;6.70;99.90;;;;;;5095546;28;20161;-68
2022/02/18 01:27:14;;;;;;;9.23;0.98;;;6.70;99.90;;;;;;5103848;28;20195;-68
2022/02/18 01:29:40;;;;;;;3.50;0.90;;;6.70;99.90;;;;;;5091175;28;20199;-68
2022/02/18 01:32:08;;;;;;;1.50;0.50;;;6.70;99.90;;;;;;5100577;28;20221;-68
2022/02/18 01:34:34;;;;;;;3.63;0.65;;;6.60;99.90;;;;;;5098762;28;20659;-67
2022/02/18 01:37:00;;;;;;;3.13;0.60;;;6.50;99.90;;;;;;5091673;28;20188;-68
2022/02/18 01:39:26;;;;;;;1.35;0.85;;;6.60;99.90;;;;;;5104535;28;20220;-68
2022/02/18 01:41:52;;;;;;;0.80;0.38;;;7.00;99.90;;;;;;5095096;28;20167;-67
2022/02/18 01:44:36;;;;;;;2.30;0.82;;;7.20;99.90;;;;;;5102568;28;20188;-68
2022/02/18 01:47:04;;;;;;;7.70;0.77;;;7.10;99.90;;;;;;5105822;28;20254;-68
2022/02/18 01:49:30;;;;;;;2.83;0.40;;;6.90;99.90;;;;;;5094670;28;20207;-68
2022/02/18 01:51:55;;;;;;;4.13;0.75;;;6.80;99.90;;;;;;5086621;28;20250;-68
2022/02/18 01:54:22;;;;;;;4.07;0.60;;;6.80;99.90;;;;;;5107991;28;20223;-68
2022/02/18 01:56:48;;;;;;;1.00;0.60;;;6.70;99.90;;;;;;5098120;28;20192;-67
2022/02/18 01:59:14;;;;;;;0.43;0.30;;;6.50;99.90;;;;;;5107686;28;20609;-68
2022/02/18 02:01:40;;;;;;;6.90;0.60;;;6.40;99.90;;;;;;5094526;28;20173;-68
2022/02/18 02:04:10;;;;;;;1.40;0.52;;;6.50;99.90;;;;;;5103709;28;20238;-67
2022/02/18 02:06:36;;;;;;;0.55;0.38;;;6.60;99.90;;;;;;5101669;28;20164;-67
2022/02/18 02:09:02;;;;;;;1.65;0.52;;;6.60;99.90;;;;;;5096640;28;20255;-68
2022/02/18 02:11:27;;;;;;;2.95;0.82;;;6.50;99.90;;;;;;5107578;28;20197;-68
2022/02/18 02:13:54;;;;;;;1.58;0.45;;;6.40;99.90;;;;;;5095472;28;20202;-68
2022/02/18 02:16:21;;;;;;;0.73;0.40;;;6.30;99.90;;;;;;5101844;28;20224;-67
2022/02/18 02:18:47;;;;;;;2.58;0.60;;;6.20;99.90;;;;;;5103421;28;20198;-68
2022/02/18 02:21:15;;;;;;;2.50;0.82;;;6.00;99.90;;;;;;5094758;28;20195;-68
2022/02/18 02:23:41;;;;;;;3.05;0.73;;;6.00;99.90;;;;;;5107358;28;20160;-68
2022/02/18 02:26:14;;;;;;;2.60;1.00;;;5.90;99.90;;;;;;5096490;28;20187;-68
2022/02/18 02:28:40;;;;;;;3.10;1.02;;;5.80;99.90;;;;;;5099234;28;20156;-68
2022/02/18 02:31:06;;;;;;;2.70;1.30;;;5.80;99.90;;;;;;5105834;28;20195;-68
2022/02/18 02:33:33;;;;;;;6.43;1.20;;;5.80;99.90;;;;;;5094094;28;20175;-68
2022/02/18 02:35:59;;;;;;;3.13;1.00;;;5.80;99.90;;;;;;5103592;28;20167;-68
2022/02/18 02:38:25;;;;;;;3.22;0.68;;;5.70;99.90;;;;;;5100035;28;20191;-68
2022/02/18 02:40:51;;;;;;;3.50;1.75;;;5.50;99.90;;;;;;5097532;28;20214;-68
2022/02/18 02:43:17;;;;;;;1.98;1.00;;;5.40;99.90;;;;;;5107061;28;20569;-68
2022/02/18 02:45:43;;;;;;;6.03;1.60;;;5.30;99.90;;;;;;5093060;28;20250;-69
2022/02/18 02:48:09;;;;;;;1.00;0.60;;;5.20;99.90;;;;;;5103306;28;20168;-69
2022/02/18 02:50:35;;;;;;;6.05;1.35;;;5.10;99.90;;;;;;5088744;28;20224;-69
2022/02/18 02:53:01;;;;;;;2.47;0.88;;;5.00;99.90;;;;;;5097340;28;20163;-68
2022/02/18 02:55:27;;;;;;;1.83;0.77;;;4.90;99.90;;;;;;5106266;28;20167;-68
2022/02/18 02:57:53;;;;;;;1.70;0.82;;;4.80;99.90;;;;;;5094637;28;20191;-68
2022/02/18 03:00:19;;;;;;;1.85;0.50;;;4.90;99.90;;;;;;5101646;28;20199;-68
2022/02/18 03:02:45;;;;;;;3.25;1.00;;;4.90;99.90;;;;;;5102128;28;20718;-69
2022/02/18 03:05:13;;;;;;;2.88;0.98;;;4.90;99.90;;;;;;5094128;28;20175;-68
2022/02/18 03:07:38;;;;;;;3.55;1.05;;;4.90;99.90;;;;;;5105586;28;20178;-69
2022/02/18 03:10:06;;;;;;;2.65;1.38;;;4.80;99.90;;;;;;5094345;28;20218;-68
2022/02/18 03:12:32;;;;;;;2.63;1.27;;;4.70;99.90;;;;;;5098072;28;20188;-68
2022/02/18 03:14:58;;;;;;;1.77;1.02;;;4.70;99.90;;;;;;5104040;28;20172;-68
2022/02/18 03:17:25;;;;;;;5.13;0.85;;;4.60;99.90;;;;;;5092047;28;20245;-68
2022/02/18 03:19:51;;;;;;;2.55;0.85;;;4.50;99.90;;;;;;5104944;28;20192;-67
2022/02/18 03:22:17;;;;;;;2.58;0.73;;;4.60;99.90;;;;;;5098004;28;20223;-68
2022/02/18 03:24:43;;;;;;;1.73;0.95;;;4.60;99.90;;;;;;5097768;28;20228;-68
2022/02/18 03:27:09;;;;;;;2.33;0.93;;;4.60;99.90;;;;;;5104348;28;20167;-68
2022/02/18 03:29:35;;;;;;;3.70;1.40;;;4.50;99.90;;;;;;5092595;28;20692;-67
2022/02/18 03:32:01;;;;;;;2.45;0.93;;;4.40;99.90;;;;;;5103456;28;20172;-67
2022/02/18 03:34:27;;;;;;;9.68;1.42;;;4.20;99.90;;;;;;5098912;28;20636;-67
2022/02/18 03:36:53;;;;;;;8.30;1.98;;;4.30;99.90;;;;;;5094178;28;20200;-67
2022/02/18 03:39:19;;;;;;;6.68;1.13;;;4.30;99.90;;;;;;5105403;28;20216;-67
2022/02/18 03:41:45;;;;;;;3.15;1.42;;;4.30;99.90;;;;;;5091774;28;20175;-67
2022/02/18 03:44:11;;;;;;;8.32;2.03;;;4.30;99.90;;;;;;5101848;28;20160;-68
2022/02/18 03:46:37;;;;;;;4.47;1.27;;;4.30;99.90;;;;;;5099787;28;20185;-67
2022/02/18 03:49:03;;;;;;;2.95;1.30;;;4.20;99.90;;;;;;5093909;28;20183;-68
2022/02/18 03:51:29;;;;;;;5.57;1.95;;;4.20;99.90;;;;;;5083605;28;20204;-67
2022/02/18 03:53:55;;;;;;;7.65;1.17;;;4.10;99.90;;;;;;5106127;28;20172;-67
2022/02/18 03:56:21;;;;;;;17.88;4.10;;;4.10;99.90;;;;;;5099343;28;20278;-67
2022/02/18 03:58:47;;;;;;;9.85;2.45;;;4.30;99.90;;;;;;5099507;28;20176;-67
2022/02/18 04:01:13;;;;;;;18.88;3.30;;;4.30;99.90;;;;;;5092704;28;20270;-67
2022/02/18 04:03:41;;;;;;;20.67;2.70;;;4.40;99.90;;;;;;5104812;28;20287;-67
2022/02/18 04:06:07;;;;;;;7.32;2.55;;;4.50;99.90;;;;;;5093752;28;20164;-67
2022/02/18 04:08:32;;;;;;;20.52;2.67;;;4.70;99.90;;;;;;5098112;28;20221;-67
2022/02/18 04:10:58;;;;;;;12.38;2.50;;;4.60;99.90;;;;;;5102183;28;20202;-67
2022/02/18 04:13:25;;;;;;;5.88;2.22;;;4.60;99.90;;;;;;5091946;28;20168;-67
2022/02/18 04:15:51;;;;;;;6.22;2.72;;;4.60;99.90;;;;;;5103774;28;20164;-67
2022/02/18 04:18:16;;;;;;;7.28;1.83;;;4.60;99.90;;;;;;5096888;28;20215;-67
2022/02/18 04:20:42;;;;;;;6.63;3.10;;;4.60;99.90;;;;;;5096105;28;20191;-67
2022/02/18 04:23:08;;;;;;;12.73;3.40;;;4.40;99.90;;;;;;5104071;28;20188;-67
2022/02/18 04:25:36;;;;;;;14.02;2.90;;;4.40;99.90;;;;;;5091418;28;20692;-69
2022/02/18 04:28:07;;;;;;;9.55;2.88;;;4.40;99.90;;;;;;5102106;28;20172;-68
2022/02/18 04:30:34;;;;;;;9.27;2.22;;;4.40;99.90;;;;;;5098284;28;20263;-67
2022/02/18 04:33:00;;;;;;;6.28;2.50;;;4.30;99.90;;;;;;5094237;28;20179;-68
2022/02/18 04:35:26;;;;;;;14.80;3.53;;;4.20;99.90;;;;;;5103053;28;20178;-68
2022/02/18 04:37:52;;;;;;;6.22;2.40;;;4.10;99.90;;;;;;5093109;28;20187;-67
2022/02/18 04:40:19;;;;;;;9.45;1.92;;;4.00;99.90;;;;;;5099750;28;20230;-68
2022/02/18 04:42:46;;;;;;;10.32;1.90;;;3.90;99.90;;;;;;5099863;28;20172;-67
2022/02/18 04:45:14;;;;;;;5.78;2.33;;;3.90;99.90;;;;;;5092475;28;20164;-67
2022/02/18 04:47:40;;;;;;;4.05;1.58;;;3.80;99.90;;;;;;5104551;28;20190;-68
2022/02/18 04:50:07;;;;;;;11.70;2.20;;;3.70;99.90;;;;;;5090717;28;20194;-67
2022/02/18 04:52:36;;;;;;;7.03;1.40;;;3.60;99.90;;;;;;5096899;28;20209;-67
2022/02/18 04:55:05;;;;;;;4.65;2.17;;;3.50;99.90;;;;;;5099836;28;20183;-67
2022/02/18 04:57:32;;;;;;;3.42;1.65;;;3.40;99.90;;;;;;5104343;28;20266;-67
2022/02/18 04:59:59;;;;;;;6.00;1.58;;;3.30;99.90;;;;;;5093518;28;20187;-67
2022/02/18 05:02:26;;;;;;;10.60;1.73;;;3.20;99.90;;;;;;5098000;28;20227;-67
2022/02/18 05:04:52;;;;;;;11.95;2.67;;;3.20;99.90;;;;;;5101344;28;20175;-68
2022/02/18 05:07:18;;;;;;;9.68;2.50;;;3.20;99.90;;;;;;5090927;28;20211;-67
2022/02/18 05:09:44;;;;;;;8.60;2.65;;;3.20;99.90;;;;;;5104395;28;20211;-68
2022/02/18 05:12:11;;;;;;;22.35;3.58;;;3.20;99.90;;;;;;5095087;28;20163;-68
2022/02/18 05:14:37;;;;;;;6.88;2.47;;;3.10;99.90;;;;;;5097102;28;20164;-68
2022/02/18 05:17:03;;;;;;;6.55;2.33;;;3.20;99.90;;;;;;5106289;28;20224;-69
2022/02/18 05:19:29;;;;;;;9.65;3.17;;;3.20;99.90;;;;;;5095003;28;20199;-68
2022/02/18 05:21:55;;;;;;;19.10;4.07;;;3.20;99.90;;;;;;5106607;28;20163;-69
2022/02/18 05:24:21;;;;;;;13.35;3.75;;;3.20;99.90;;;;;;5100345;28;20156;-68
2022/02/18 05:26:46;;;;;;;15.27;2.42;;;3.20;99.90;;;;;;5099135;28;20231;-68
2022/02/18 05:29:12;;;;;;;12.73;3.33;;;3.20;99.90;;;;;;5107786;28;20174;-68
2022/02/18 05:31:38;;;;;;;11.70;3.40;;;3.10;99.90;;;;;;5095119;28;20697;-68
2022/02/18 05:34:04;;;;;;;12.40;2.88;;;3.10;99.90;;;;;;5104680;28;20222;-68
2022/02/18 05:36:30;;;;;;;16.13;3.13;;;3.10;99.90;;;;;;5101155;28;20195;-67
2022/02/18 05:38:56;;;;;;;11.68;2.88;;;3.10;99.90;;;;;;5097952;28;20168;-67
2022/02/18 05:41:22;;;;;;;11.43;2.90;;;3.10;99.90;;;;;;5108193;28;20191;-70
2022/02/18 05:43:49;;;;;;;12.43;3.03;;;3.00;99.90;;;;;;5095134;28;20159;-69
2022/02/18 05:46:16;;;;;;;6.45;2.95;;;2.90;99.90;;;;;;5103053;28;20175;-68
2022/02/18 05:48:42;;;;;;;12.07;2.75;;;2.90;99.90;;;;;;5103385;28;20539;-68
2022/02/18 05:51:08;;;;;;;12.00;2.33;;;2.80;99.90;;;;;;5095726;28;20191;-69
2022/02/18 05:53:34;;;;;;;9.30;2.30;;;2.70;99.90;;;;;;5107741;28;20167;-69
2022/02/18 05:56:00;;;;;;;18.17;4.75;;;2.80;99.90;;;;;;5096130;28;20178;-69
2022/02/18 05:58:25;;;;;;;9.07;1.83;;;2.80;99.90;;;;;;5101727;28;20168;-69
2022/02/18 06:00:51;;;;;;;13.63;2.40;;;2.70;99.90;;;;;;5104324;28;20195;-69
2022/02/18 06:03:17;;;;;;;11.80;3.05;;;2.70;99.90;;;;;;5094301;28;20215;-69
2022/02/18 06:05:44;;;;;;;10.52;2.88;;;2.60;99.90;;;;;;5106514;28;20219;-68
2022/02/18 06:08:10;;;;;;;12.85;3.72;;;2.50;99.90;;;;;;5098393;28;20175;-68
2022/02/18 06:10:36;;;;;;;11.57;3.85;;;2.50;99.90;;;;;;5098293;28;20196;-68
2022/02/18 06:13:03;;;;;;;14.45;5.18;;;2.40;99.90;;;;;;5105431;28;20171;-68
2022/02/18 06:15:29;;;;;;;18.13;4.80;;;2.40;99.90;;;;;;5092956;28;20606;-68
2022/02/18 06:17:55;;;;;;;16.88;5.25;;;2.40;99.90;;;;;;5105487;28;20210;-68
2022/02/18 06:20:21;;;;;;;22.45;5.03;;;2.50;99.90;;;;;;5099457;28;20191;-68
2022/02/18 06:22:47;;;;;;;7.47;3.25;;;2.60;99.90;;;;;;5098169;28;20226;-68
2022/02/18 06:25:13;;;;;;;16.67;3.03;;;3.10;99.90;;;;;;5106597;28;20181;-68
2022/02/18 06:27:39;;;;;;;6.15;2.97;;;3.50;99.90;;;;;;5092896;28;20167;-68
2022/02/18 06:30:05;;;;;;;14.10;3.25;;;3.70;99.90;;;;;;5103768;28;20222;-68
2022/02/18 06:32:31;;;;;;;8.27;2.45;;;4.00;99.90;;;;;;5100530;28;20304;-68
2022/02/18 06:34:57;;;;;;;8.68;2.58;;;4.20;99.90;;;;;;5096576;28;20172;-68
2022/02/18 06:37:23;;;;;;;9.00;2.72;;;4.10;99.90;;;;;;5105788;28;20244;-68
2022/02/18 06:39:50;;;;;;;6.47;2.70;;;4.10;99.90;;;;;;5094559;28;20220;-68
2022/02/18 06:42:16;;;;;;;5.43;1.70;;;4.20;99.90;;;;;;5102276;28;20167;-68
2022/02/18 06:44:42;;;;;;;8.23;2.28;;;4.30;99.90;;;;;;5102102;28;20164;-68
2022/02/18 06:47:08;;;;;;;6.80;1.90;;;4.30;99.90;;;;;;5093972;28;20194;-68
2022/02/18 06:49:34;;;;;;;2.92;2.00;;;4.30;99.90;;;;;;5106759;28;20195;-68
2022/02/18 06:52:00;;;;;;;5.97;1.65;;;4.30;99.90;;;;;;5095965;28;20179;-68
2022/02/18 06:54:27;;;;;;;6.57;1.73;;;4.40;99.90;;;;;;5100813;28;20232;-68
2022/02/18 06:56:54;;;;;;;6.22;1.95;;;4.50;99.90;;;;;;5102556;28;20206;-67
2022/02/18 06:59:22;;;;;;;9.02;2.50;;;4.60;99.90;;;;;;5093035;28;20164;-68
2022/02/18 07:01:52;;;;;;;9.90;2.30;;;4.80;99.90;;;;;;5105856;28;20201;-67
2022/02/18 07:04:18;;;;;;;7.03;1.92;;;5.00;99.90;;;;;;5098031;28;20211;-68
2022/02/18 07:06:44;;;;;;;6.80;2.03;;;4.90;99.90;;;;;;5097349;28;20188;-68
2022/02/18 07:09:13;;;;;;;5.55;2.50;;;5.00;99.90;;;;;;5104914;28;20636;-68
2022/02/18 07:11:39;;;;;;;7.63;2.65;;;5.20;99.90;;;;;;5093027;28;20198;-68
2022/02/18 07:14:09;;;;;;;10.18;3.17;;;5.40;99.90;;;;;;5103096;28;20179;-68
2022/02/18 07:16:43;;;;;;;13.43;2.85;;;5.50;99.90;;;;;;5100188;28;20206;-68
2022/02/18 07:19:14;;;;;;;8.07;2.38;;;5.50;99.90;;;;;;5093765;28;20164;-68
2022/02/18 07:21:41;;;;;;;10.75;2.92;;;5.80;99.90;;;;;;5106363;28;20161;-68
2022/02/18 07:24:11;;;;;;;5.88;2.25;;;6.20;99.90;;;;;;5095063;28;20179;-67
2022/02/18 07:26:38;;;;;;;9.82;2.20;;;6.90;99.90;;;;;;5097805;28;20182;-68
2022/02/18 07:29:04;;;;;;;3.95;2.17;;;6.80;99.90;;;;;;5103893;28;20167;-68
2022/02/18 07:31:30;;;;;;;8.18;2.20;;;6.80;99.90;;;;;;5092695;28;20192;-67
2022/02/18 07:33:57;;;;;;;10.40;3.10;;;6.90;99.90;;;;;;5104079;28;20164;-67
2022/02/18 07:36:23;;;;;;;12.10;3.10;;;7.30;99.90;;;;;;5097969;28;20191;-67
2022/02/18 07:38:49;;;;;;;9.93;2.47;;;7.80;99.90;;;;;;5095653;28;20225;-68
2022/02/18 07:41:14;;;;;;;12.80;3.45;;;8.70;99.90;;;;;;5105653;28;20243;-67
2022/02/18 07:43:41;;;;;;;17.90;3.22;;;8.80;99.90;;;;;;5092595;28;20219;-67
2022/02/18 07:46:07;;;;;;;11.75;3.50;;;8.30;99.90;;;;;;5101808;28;20172;-67
2022/02/18 07:48:33;;;;;;;7.75;3.30;;;7.90;99.90;;;;;;5099557;28;20168;-68
2022/02/18 07:51:00;;;;;;;7.35;2.72;;;8.00;99.90;;;;;;5094130;28;20203;-68
2022/02/18 07:53:25;;;;;;;12.90;3.35;;;8.30;99.90;;;;;;5105718;28;20163;-67
2022/02/18 07:55:52;;;;;;;7.50;2.45;;;8.40;99.90;;;;;;5093203;28;20645;-68
2022/02/18 07:58:18;;;;;;;6.82;2.70;;;8.70;99.90;;;;;;5100240;28;20198;-67
2022/02/18 08:00:44;;;;;;;10.68;3.38;;;9.70;99.90;;;;;;5100460;28;20191;-67
2022/02/18 08:03:10;;;;;;;12.35;2.72;;;9.60;99.90;;;;;;5092395;28;20211;-67
2022/02/18 08:05:36;;;;;;;11.93;2.50;;;9.10;99.90;;;;;;5103610;28;20631;-68
2022/02/18 08:08:02;;;;;;;16.75;2.67;;;8.90;99.90;;;;;;5092226;28;20198;-68
2022/02/18 08:10:28;;;;;;;7.63;2.50;;;8.70;99.90;;;;;;5090694;28;20195;-67
2022/02/18 08:12:55;;;;;;;4.85;2.00;;;8.70;99.90;;;;;;5089545;28;20202;-67
2022/02/18 08:15:21;;;;;;;5.53;1.90;;;8.70;99.90;;;;;;5088390;28;20166;-67
2022/02/18 08:17:47;;;;;;;7.30;2.35;;;8.80;99.90;;;;;;5088372;28;20641;-67
2022/02/18 08:20:14;;;;;;;9.35;3.15;;;9.10;99.90;;;;;;5088467;28;20230;-68
2022/02/18 08:22:40;;;;;;;8.07;2.40;;;9.50;99.90;;;;;;5088603;28;20164;-67
2022/02/18 08:25:08;;;;;;;10.52;3.33;;;9.80;99.90;;;;;;5088575;28;20248;-68
2022/02/18 08:27:35;;;;;;;7.53;2.40;;;10.00;99.90;;;;;;5088531;28;20167;-67
2022/02/18 08:30:01;;;;;;;8.07;2.47;;;10.20;99.90;;;;;;5088293;28;20188;-68
2022/02/18 08:32:27;;;;;;;12.38;3.40;;;10.80;99.90;;;;;;5088501;28;20219;-68
2022/02/18 08:34:53;;;;;;;10.95;3.30;;;13.60;99.90;;;;;;5086425;28;20839;-68
2022/02/18 08:37:19;;;;;;;10.38;2.53;;;17.00;99.90;;;;;;5088266;28;20224;-68
2022/02/18 08:39:45;;;;;;;8.98;2.60;;;18.40;97.90;;;;;;5088066;28;20191;-68
2022/02/18 08:42:11;;;;;;;9.90;2.60;;;19.60;96.30;;;;;;5088227;28;20195;-69
2022/02/18 08:44:38;;;;;;;11.85;2.15;;;20.70;95.10;;;;;;5088240;28;20172;-69
2022/02/18 08:47:04;;;;;;;11.82;3.08;;;21.60;93.60;;;;;;5088341;28;20160;-68
2022/02/18 08:49:30;;;;;;;7.53;2.53;;;22.10;93.40;;;;;;5078651;28;20195;-68
2022/02/18 08:51:56;;;;;;;10.82;3.13;;;22.10;93.10;;;;;;5076260;28;20192;-69
2022/02/18 08:54:22;;;;;;;14.80;4.25;;;23.00;91.70;;;;;;5067796;28;20171;-68
2022/02/18 08:56:50;;;;;;;14.60;3.95;;;23.50;90.90;;;;;;5067977;28;20192;-69
2022/02/18 08:59:16;;;;;;;10.65;3.42;;;24.00;90.40;;;;;;5067824;28;20205;-68
2022/02/18 09:01:42;;;;;;;10.60;2.92;;;24.20;90.10;;;;;;5067907;28;20157;-69
2022/02/18 09:04:09;;;;;;;11.30;3.87;;;24.50;90.30;;;;;;5022297;28;1318449;-68
2022/02/18 09:06:35;;;;;;;8.88;2.80;;;24.80;87.80;;;;;;5079245;28;20183;-68
2022/02/18 09:09:01;;;;;;;18.77;3.42;;;25.00;88.10;;;;;;5088468;28;20190;-68
2022/02/18 09:11:27;;;;;;;12.90;3.00;;;25.10;88.00;;;;;;5088548;28;20143;-69
2022/02/18 09:13:53;;;;;;;12.88;2.92;;;25.10;87.50;;;;;;5087528;28;20182;-67
2022/02/18 09:16:20;;;;;;;14.38;3.90;;;25.80;84.50;;;;;;5088250;28;20220;-68
2022/02/18 09:18:46;;;;;;;13.57;3.67;;;26.10;83.10;;;;;;5088573;28;20159;-68
2022/02/18 09:21:12;;;;;;;8.43;2.60;;;24.70;86.20;;;;;;5088642;28;20151;-68
2022/02/18 09:23:38;;;;;;;12.40;2.85;;;25.00;85.60;;;;;;5085793;28;20197;-68
2022/02/18 09:26:03;;;;;;;11.40;3.03;;;24.50;84.30;;;;;;5068254;28;20668;-68
2022/02/18 09:28:30;;;;;;;7.07;2.25;;;24.20;87.00;;;;;;5068338;28;20152;-69
2022/02/18 09:30:56;;;;;;;8.57;2.13;;;24.60;84.50;;;;;;5068491;28;20216;-68
2022/02/18 09:33:23;;;;;;;8.40;2.65;;;24.70;83.80;;;;;;5070197;28;20152;-68
2022/02/18 09:35:50;;;;;;;9.32;2.90;;;24.60;83.80;;;;;;5086444;28;20231;-68
2022/02/18 09:38:17;;;;;;;8.95;2.50;;;23.80;83.30;;;;;;5087912;28;20206;-68
2022/02/18 09:40:44;;;;;;;4.60;2.70;;;23.60;84.50;;;;;;5088536;28;20171;-68
2022/02/18 09:43:10;;;;;;;11.20;3.80;;;23.80;85.10;;;;;;5088362;28;20235;-68
2022/02/18 09:45:36;;;;;;;14.35;2.85;;;23.70;84.10;;;;;;5088057;28;20195;-69
2022/02/18 09:48:03;;;;;;;8.65;2.85;;;24.20;84.60;;;;;;5088152;28;20617;-68
2022/02/18 09:50:30;;;;;;;13.07;3.25;;;24.30;83.50;;;;;;5088079;28;20182;-68
2022/02/18 09:52:57;;;;;;;5.57;2.70;;;24.40;85.30;;;;;;5088235;28;20223;-68
2022/02/18 09:55:23;;;;;;;8.07;2.97;;;23.20;85.60;;;;;;5088297;28;20222;-68
2022/02/18 09:57:52;;;;;;;10.10;2.40;;;22.50;87.10;;;;;;5087738;28;20192;-68
2022/02/18 10:00:19;;;;;;;7.32;2.58;;;21.60;88.60;;;;;;5088287;28;20208;-68
2022/02/18 10:02:48;;;;;;;9.68;3.20;;;21.90;88.50;;;;;;5091638;28;20608;-68
2022/02/18 10:05:15;;;;;;;9.07;2.72;;;22.00;89.10;;;;;;5087414;28;20199;-68
2022/02/18 10:08:04;;;;;;;10.52;3.03;;;22.70;87.30;;;;;;5083598;28;20558;-67
2022/02/18 10:10:31;;;;;;;6.65;2.50;;;22.70;87.50;;;;;;5091355;28;20176;-68
2022/02/18 10:12:57;;;;;;;7.80;1.85;;;21.70;88.20;;;;;;5077789;28;20188;-68
2022/02/18 10:15:23;;;;;;;5.70;2.10;;;21.20;89.00;;;;;;5089019;28;20203;-68
2022/02/18 10:17:49;;;;;;;4.47;1.80;;;20.60;90.50;;;;;;5091282;28;20190;-68
2022/02/18 10:20:16;;;;;;;6.13;2.05;;;21.40;89.30;;;;;;5091370;28;20215;-68
2022/02/18 10:22:54;;;;;;;7.53;1.80;;;21.60;88.50;;;;;;5091367;28;20639;-68
2022/02/18 10:25:29;;;;;;;5.28;1.63;;;21.90;89.00;;;;;;5091412;28;20684;-68
2022/02/18 10:27:57;;;;;;;9.00;1.63;;;21.20;90.00;;;;;;5091407;28;20159;-69
2022/02/18 10:30:28;;;;;;;3.70;1.58;;;21.40;90.00;;;;;;5091428;28;20174;-68
2022/02/18 10:32:55;;;;;;;3.30;1.65;;;21.00;90.20;;;;;;5091128;28;20160;-69
2022/02/18 10:35:30;;;;;;;7.10;1.83;;;20.70;90.50;;;;;;5091211;28;20287;-68
2022/02/18 10:37:56;;;;;;;5.95;1.70;;;21.10;90.50;;;;;;5090967;28;20187;-68
2022/02/18 10:40:22;;;;;;;4.82;1.48;;;20.40;90.90;;;;;;5091214;28;20157;-69
2022/02/18 10:42:51;;;;;;;6.80;1.80;;;19.90;91.10;;;;;;5090240;28;20152;-68
2022/02/18 10:45:26;;;;;;;2.83;1.23;;;19.90;91.60;;;;;;5090704;28;20213;-68
2022/02/18 10:48:19;;;;;;;2.05;1.27;;;20.70;91.90;;;;;;5090847;28;20151;-68
2022/02/18 10:51:05;;;;;;;3.92;1.73;;;21.80;90.40;;;;;;5091138;28;20159;-68
2022/02/18 10:53:37;;;;;;;3.15;1.42;;;21.30;90.30;;;;;;5090696;28;20156;-69
2022/02/18 10:56:05;;;;;;;2.10;1.38;;;20.20;92.20;;;;;;5090756;28;20152;-68
2022/02/18 10:58:33;;;;;;;1.85;1.17;;;19.20;93.10;;;;;;5090950;28;20160;-68
2022/02/18 11:01:23;;;;;;;5.70;2.00;;;19.10;92.70;;;;;;5090586;28;20235;-68
2022/02/18 11:04:10;;;;;;;3.28;1.48;;;19.50;93.10;;;;;;5090434;28;20227;-68
2022/02/18 11:06:37;;;;;;;3.35;1.85;;;19.00;93.10;;;;;;5090608;28;20167;-68
2022/02/18 11:09:08;;;;;;;3.70;1.85;;;18.40;94.50;;;;;;5090554;28;20515;-68
2022/02/18 11:11:40;;;;;;;5.43;1.70;;;18.70;94.20;;;;;;5088109;28;20196;-68
2022/02/18 11:14:08;;;;;;;3.35;1.50;;;18.60;95.50;;;;;;5089227;28;20167;-68
2022/02/18 11:16:38;;;;;;;4.38;1.50;;;19.40;94.30;;;;;;5088571;28;20195;-68
2022/02/18 11:19:04;;;;;;;5.07;1.80;;;20.00;93.20;;;;;;5077111;28;20188;-69
2022/02/18 11:21:30;;;;;;;3.03;1.88;;;19.80;93.70;;;;;;5087538;28;20287;-69
2022/02/18 11:23:59;;;;;;;7.45;2.00;;;19.70;94.60;;;;;;5069912;28;20216;-69
2022/02/18 11:26:28;;;;;;;2.15;1.42;;;19.90;93.60;;;;;;5076106;28;20160;-68
2022/02/18 11:28:55;;;;;;;2.97;1.60;;;19.60;93.90;;;;;;5090124;28;20156;-68
2022/02/18 11:31:38;;;;;;;3.40;1.65;;;19.80;94.20;;;;;;5089925;28;20273;-68
2022/02/18 11:34:29;;;;;;;5.90;1.45;;;19.00;95.20;;;;;;5090100;28;20171;-68
2022/02/18 11:37:07;;;;;;;2.78;1.52;;;18.80;95.60;;;;;;5069890;28;20669;-68
2022/02/18 11:39:55;;;;;;;1.95;1.38;;;19.20;94.60;;;;;;5069770;28;20222;-68
2022/02/18 11:42:41;;;;;;;5.45;1.73;;;18.90;95.50;;;;;;5069733;28;20149;-69
2022/02/18 11:45:15;;;;;;;4.05;1.48;;;18.90;95.00;;;;;;5068615;28;20649;-68
2022/02/18 11:47:42;;;;;;;5.80;1.73;;;18.80;95.80;;;;;;5069805;28;20160;-68
2022/02/18 11:50:11;;;;;;;4.88;1.63;;;19.70;95.30;;;;;;5069730;28;20160;-69
2022/02/18 11:52:49;;;;;;;2.22;1.67;;;20.30;94.60;;;;;;5080832;28;20163;-68
2022/02/18 11:55:28;;;;;;;3.95;1.90;;;21.50;93.60;;;;;;5089712;28;20254;-68
2022/02/18 11:58:06;;;;;;;3.47;1.70;;;21.80;93.40;;;;;;5089502;28;20182;-69
2022/02/18 12:00:42;;;;;;;3.85;1.80;;;22.20;92.30;;;;;;5089495;28;20152;-69
2022/02/18 12:03:21;;;;;;;2.90;1.58;;;22.20;92.10;;;;;;5088679;28;20301;-69
2022/02/18 12:06:09;;;;;;;2.95;1.80;;;22.40;92.90;;;;;;5069483;28;20526;-68
2022/02/18 12:08:42;;;;;;;3.15;2.03;;;22.70;92.50;;;;;;5069393;28;20262;-68
2022/02/18 12:11:12;;;;;;;6.20;1.60;;;22.80;91.70;;;;;;5069124;28;20168;-68
2022/02/18 12:13:50;;;;;;;4.65;1.50;;;22.00;91.70;;;;;;5069316;28;20191;-69
2022/02/18 12:16:17;;;;;;;2.67;1.17;;;22.30;91.20;;;;;;5069293;28;20160;-68
2022/02/18 12:18:59;;;;;;;4.07;1.63;;;22.60;92.40;;;;;;5074136;28;20194;-68
2022/02/18 12:21:25;;;;;;;2.97;1.58;;;22.60;92.10;;;;;;5089652;28;20239;-68
2022/02/18 12:23:51;;;;;;;3.15;2.00;;;21.70;92.50;;;;;;5088911;28;20183;-68
2022/02/18 12:26:22;;;;;;;4.35;1.77;;;21.40;93.00;;;;;;5082022;28;20165;-68
2022/02/18 12:28:49;;;;;;;5.68;1.80;;;21.80;92.50;;;;;;5069028;28;20153;-68
2022/02/18 12:31:16;;;;;;;5.15;2.00;;;21.70;92.90;;;;;;5084717;28;20172;-68
2022/02/18 12:33:46;;;;;;;1.60;0.85;;;21.90;93.30;;;;;;5069110;28;20184;-68
2022/02/18 12:36:17;;;;;;;0.80;0.80;;;21.30;91.10;;;;;;5068912;28;20724;-68
2022/02/18 12:38:47;;;;;;;2.28;0.93;;;20.80;91.20;;;;;;5069013;28;20152;-68
2022/02/18 12:41:16;;;;;;;2.38;0.90;;;20.00;91.00;;;;;;5068997;28;20157;-68
2022/02/18 12:43:42;;;;;;;3.70;1.15;;;19.50;93.00;;;;;;5067756;28;20193;-68
2022/02/18 12:46:12;;;;;;;5.47;1.35;;;19.20;93.50;;;;;;5068946;28;20156;-68
2022/02/18 12:48:40;;;;;;;1.50;0.90;;;18.70;93.80;;;;;;5068942;28;20691;-68
2022/02/18 12:51:23;;;;;;;4.28;1.25;;;18.30;94.30;;;;;;5068902;28;20168;-68
2022/02/18 12:53:52;;;;;;;1.00;0.90;;;17.70;94.70;;;;;;5081474;28;20216;-68